Prairie Hill, Missouri
Current Conditions -  °F | °C
As of 6:55 AM on Sunday 23 Nov 2014 (Local Time) from KMHL Reporting Station
Moderate Rain Moderate Rain  
Wind Chill: 54°   Ceiling: 1000
Heat Index: 54°   Visibility: 2mi
Dew Point: 54°   Wind: 6mph
Humidity: 100%   Direction: 130°SE
Pressure: 29.59"   Gusts: NA
Location:  39.4605°N, 92.8061°W
Report Text: KMHL 231255Z AUTO 13005KT 2SM RA SCT003 OVC010 12/12 A2959 RMK AO2 P0013
Loading
Personal Weather Stations






























Interactive Weather Map New forecast layout! Learn more

10-Day Weather Forecast

Advertisements
Track Severe Weather on mobile